sensor_id;sensor_type;location;lat;lon;timestamp;P1;durP1;ratioP1;P2;durP2;ratioP2
11139;SDS011;5624;49.388;11.350;2023-04-15T00:01:09;7.83;;;6.47;;
11139;SDS011;5624;49.388;11.350;2023-04-15T00:03:35;9.00;;;6.70;;
11139;SDS011;5624;49.388;11.350;2023-04-15T00:06:01;8.43;;;7.00;;
11139;SDS011;5624;49.388;11.350;2023-04-15T00:08:27;10.07;;;7.13;;
11139;SDS011;5624;49.388;11.350;2023-04-15T00:10:54;8.43;;;6.93;;
11139;SDS011;5624;49.388;11.350;2023-04-15T00:13:19;8.67;;;6.90;;
11139;SDS011;5624;49.388;11.350;2023-04-15T00:15:45;9.90;;;7.63;;
11139;SDS011;5624;49.388;11.350;2023-04-15T00:18:11;8.63;;;6.50;;
11139;SDS011;5624;49.388;11.350;2023-04-15T00:20:36;9.23;;;6.93;;
11139;SDS011;5624;49.388;11.350;2023-04-15T00:23:02;9.20;;;8.00;;
11139;SDS011;5624;49.388;11.350;2023-04-15T00:25:28;9.47;;;6.87;;
11139;SDS011;5624;49.388;11.350;2023-04-15T00:27:53;9.80;;;7.37;;
11139;SDS011;5624;49.388;11.350;2023-04-15T00:30:19;8.63;;;7.17;;
11139;SDS011;5624;49.388;11.350;2023-04-15T00:32:45;8.93;;;6.93;;
11139;SDS011;5624;49.388;11.350;2023-04-15T00:35:10;10.87;;;7.80;;
11139;SDS011;5624;49.388;11.350;2023-04-15T00:37:36;9.87;;;7.20;;
11139;SDS011;5624;49.388;11.350;2023-04-15T00:40:02;9.77;;;6.60;;
11139;SDS011;5624;49.388;11.350;2023-04-15T00:42:30;10.60;;;7.70;;
11139;SDS011;5624;49.388;11.350;2023-04-15T00:44:55;7.57;;;6.40;;
11139;SDS011;5624;49.388;11.350;2023-04-15T00:47:21;11.47;;;6.77;;
11139;SDS011;5624;49.388;11.350;2023-04-15T00:49:47;9.90;;;7.03;;
11139;SDS011;5624;49.388;11.350;2023-04-15T00:52:13;9.67;;;6.80;;
11139;SDS011;5624;49.388;11.350;2023-04-15T00:54:38;7.97;;;7.13;;
11139;SDS011;5624;49.388;11.350;2023-04-15T00:57:05;9.10;;;7.20;;
11139;SDS011;5624;49.388;11.350;2023-04-15T00:59:32;10.00;;;7.30;;
11139;SDS011;5624;49.388;11.350;2023-04-15T01:01:59;9.87;;;6.73;;
11139;SDS011;5624;49.388;11.350;2023-04-15T01:04:25;9.57;;;6.67;;
11139;SDS011;5624;49.388;11.350;2023-04-15T01:06:51;8.30;;;6.37;;
11139;SDS011;5624;49.388;11.350;2023-04-15T01:09:17;10.07;;;6.97;;
11139;SDS011;5624;49.388;11.350;2023-04-15T01:11:42;11.43;;;7.23;;
11139;SDS011;5624;49.388;11.350;2023-04-15T01:14:09;9.10;;;6.67;;
11139;SDS011;5624;49.388;11.350;2023-04-15T01:16:35;8.53;;;6.00;;
11139;SDS011;5624;49.388;11.350;2023-04-15T01:19:04;10.80;;;7.00;;
11139;SDS011;5624;49.388;11.350;2023-04-15T01:21:33;8.03;;;6.10;;
11139;SDS011;5624;49.388;11.350;2023-04-15T01:24:02;10.30;;;6.47;;
11139;SDS011;5624;49.388;11.350;2023-04-15T01:26:33;8.40;;;6.17;;
11139;SDS011;5624;49.388;11.350;2023-04-15T01:28:59;9.63;;;6.27;;
11139;SDS011;5624;49.388;11.350;2023-04-15T01:31:25;10.30;;;6.53;;
11139;SDS011;5624;49.388;11.350;2023-04-15T01:33:51;7.70;;;6.27;;
11139;SDS011;5624;49.388;11.350;2023-04-15T01:36:16;8.37;;;6.80;;
11139;SDS011;5624;49.388;11.350;2023-04-15T01:38:42;7.87;;;6.00;;
11139;SDS011;5624;49.388;11.350;2023-04-15T01:41:08;9.70;;;6.60;;
11139;SDS011;5624;49.388;11.350;2023-04-15T01:43:34;11.77;;;6.40;;
11139;SDS011;5624;49.388;11.350;2023-04-15T01:46:01;12.13;;;5.60;;
11139;SDS011;5624;49.388;11.350;2023-04-15T01:48:27;8.60;;;6.53;;
11139;SDS011;5624;49.388;11.350;2023-04-15T01:50:53;11.00;;;5.87;;
11139;SDS011;5624;49.388;11.350;2023-04-15T01:53:21;8.77;;;5.77;;
11139;SDS011;5624;49.388;11.350;2023-04-15T01:55:46;8.60;;;6.07;;
11139;SDS011;5624;49.388;11.350;2023-04-15T01:58:12;10.53;;;6.20;;
11139;SDS011;5624;49.388;11.350;2023-04-15T02:00:37;7.87;;;5.93;;
11139;SDS011;5624;49.388;11.350;2023-04-15T02:03:03;8.43;;;7.00;;
11139;SDS011;5624;49.388;11.350;2023-04-15T02:05:29;9.97;;;7.30;;
11139;SDS011;5624;49.388;11.350;2023-04-15T02:07:54;8.20;;;7.07;;
11139;SDS011;5624;49.388;11.350;2023-04-15T02:10:20;9.10;;;6.50;;
11139;SDS011;5624;49.388;11.350;2023-04-15T02:12:45;8.63;;;6.43;;
11139;SDS011;5624;49.388;11.350;2023-04-15T02:15:11;9.57;;;6.30;;
11139;SDS011;5624;49.388;11.350;2023-04-15T02:17:37;7.87;;;5.30;;
11139;SDS011;5624;49.388;11.350;2023-04-15T02:20:02;9.00;;;7.10;;
11139;SDS011;5624;49.388;11.350;2023-04-15T02:22:32;6.20;;;5.20;;
11139;SDS011;5624;49.388;11.350;2023-04-15T02:24:58;7.60;;;5.90;;
11139;SDS011;5624;49.388;11.350;2023-04-15T02:27:24;8.07;;;5.77;;
11139;SDS011;5624;49.388;11.350;2023-04-15T02:29:49;9.90;;;5.80;;
11139;SDS011;5624;49.388;11.350;2023-04-15T02:32:15;7.43;;;5.30;;
11139;SDS011;5624;49.388;11.350;2023-04-15T02:34:41;6.10;;;5.20;;
11139;SDS011;5624;49.388;11.350;2023-04-15T02:37:07;7.87;;;5.57;;
11139;SDS011;5624;49.388;11.350;2023-04-15T02:39:33;7.90;;;5.50;;
11139;SDS011;5624;49.388;11.350;2023-04-15T02:41:59;7.30;;;5.60;;
11139;SDS011;5624;49.388;11.350;2023-04-15T02:44:25;9.17;;;5.73;;
11139;SDS011;5624;49.388;11.350;2023-04-15T02:46:51;6.77;;;5.47;;
11139;SDS011;5624;49.388;11.350;2023-04-15T02:49:18;8.23;;;5.57;;
11139;SDS011;5624;49.388;11.350;2023-04-15T02:51:45;8.80;;;5.80;;
11139;SDS011;5624;49.388;11.350;2023-04-15T02:54:16;8.73;;;5.70;;
11139;SDS011;5624;49.388;11.350;2023-04-15T02:56:43;7.07;;;5.80;;
11139;SDS011;5624;49.388;11.350;2023-04-15T02:59:08;7.03;;;5.00;;
11139;SDS011;5624;49.388;11.350;2023-04-15T03:01:34;8.83;;;6.23;;
11139;SDS011;5624;49.388;11.350;2023-04-15T03:04:00;9.13;;;5.87;;
11139;SDS011;5624;49.388;11.350;2023-04-15T03:06:25;7.10;;;5.70;;
11139;SDS011;5624;49.388;11.350;2023-04-15T03:08:51;7.73;;;5.23;;
11139;SDS011;5624;49.388;11.350;2023-04-15T03:11:17;6.83;;;5.80;;
11139;SDS011;5624;49.388;11.350;2023-04-15T03:13:43;8.70;;;5.20;;
11139;SDS011;5624;49.388;11.350;2023-04-15T03:16:09;9.23;;;5.47;;
11139;SDS011;5624;49.388;11.350;2023-04-15T03:18:35;7.27;;;5.50;;
11139;SDS011;5624;49.388;11.350;2023-04-15T03:21:00;7.33;;;5.07;;
11139;SDS011;5624;49.388;11.350;2023-04-15T03:23:26;8.77;;;4.93;;
11139;SDS011;5624;49.388;11.350;2023-04-15T03:25:52;9.23;;;5.80;;
11139;SDS011;5624;49.388;11.350;2023-04-15T03:28:21;6.87;;;5.10;;
11139;SDS011;5624;49.388;11.350;2023-04-15T03:30:46;9.70;;;5.57;;
11139;SDS011;5624;49.388;11.350;2023-04-15T03:33:12;6.70;;;5.50;;
11139;SDS011;5624;49.388;11.350;2023-04-15T03:35:37;7.50;;;5.47;;
11139;SDS011;5624;49.388;11.350;2023-04-15T03:38:03;7.10;;;5.30;;
11139;SDS011;5624;49.388;11.350;2023-04-15T03:40:28;6.97;;;5.50;;
11139;SDS011;5624;49.388;11.350;2023-04-15T03:42:54;7.93;;;5.97;;
11139;SDS011;5624;49.388;11.350;2023-04-15T03:45:20;6.40;;;5.07;;
11139;SDS011;5624;49.388;11.350;2023-04-15T03:47:45;8.37;;;5.27;;
11139;SDS011;5624;49.388;11.350;2023-04-15T03:50:11;6.70;;;5.23;;
11139;SDS011;5624;49.388;11.350;2023-04-15T03:52:37;6.43;;;5.40;;
11139;SDS011;5624;49.388;11.350;2023-04-15T03:55:02;7.30;;;6.50;;
11139;SDS011;5624;49.388;11.350;2023-04-15T03:57:28;6.67;;;5.00;;
11139;SDS011;5624;49.388;11.350;2023-04-15T03:59:54;6.83;;;5.53;;
11139;SDS011;5624;49.388;11.350;2023-04-15T04:02:20;6.90;;;5.37;;
11139;SDS011;5624;49.388;11.350;2023-04-15T04:04:46;8.80;;;4.93;;
11139;SDS011;5624;49.388;11.350;2023-04-15T04:07:15;8.87;;;6.03;;
11139;SDS011;5624;49.388;11.350;2023-04-15T04:09:42;6.33;;;5.27;;
11139;SDS011;5624;49.388;11.350;2023-04-15T04:12:07;7.13;;;6.30;;
11139;SDS011;5624;49.388;11.350;2023-04-15T04:14:33;7.77;;;5.17;;
11139;SDS011;5624;49.388;11.350;2023-04-15T04:16:58;8.60;;;5.63;;
11139;SDS011;5624;49.388;11.350;2023-04-15T04:19:24;5.77;;;4.97;;
11139;SDS011;5624;49.388;11.350;2023-04-15T04:21:50;6.63;;;4.80;;
11139;SDS011;5624;49.388;11.350;2023-04-15T04:24:16;6.23;;;4.93;;
11139;SDS011;5624;49.388;11.350;2023-04-15T04:26:41;6.63;;;5.20;;
11139;SDS011;5624;49.388;11.350;2023-04-15T04:29:07;6.37;;;5.20;;
11139;SDS011;5624;49.388;11.350;2023-04-15T04:31:33;7.03;;;5.30;;
11139;SDS011;5624;49.388;11.350;2023-04-15T04:33:58;7.70;;;5.20;;
11139;SDS011;5624;49.388;11.350;2023-04-15T04:36:24;7.30;;;4.97;;
11139;SDS011;5624;49.388;11.350;2023-04-15T04:38:50;9.00;;;5.33;;
11139;SDS011;5624;49.388;11.350;2023-04-15T04:41:16;8.03;;;5.63;;
11139;SDS011;5624;49.388;11.350;2023-04-15T04:43:42;7.13;;;5.93;;
11139;SDS011;5624;49.388;11.350;2023-04-15T04:46:07;8.53;;;5.50;;
11139;SDS011;5624;49.388;11.350;2023-04-15T04:48:34;7.17;;;4.63;;
11139;SDS011;5624;49.388;11.350;2023-04-15T04:50:59;6.93;;;5.00;;
11139;SDS011;5624;49.388;11.350;2023-04-15T04:53:26;8.53;;;5.60;;
11139;SDS011;5624;49.388;11.350;2023-04-15T04:55:52;7.40;;;5.33;;
11139;SDS011;5624;49.388;11.350;2023-04-15T04:58:17;8.40;;;5.47;;
11139;SDS011;5624;49.388;11.350;2023-04-15T05:00:43;9.90;;;5.83;;
11139;SDS011;5624;49.388;11.350;2023-04-15T05:03:09;6.93;;;5.20;;
11139;SDS011;5624;49.388;11.350;2023-04-15T05:05:34;7.50;;;5.57;;
11139;SDS011;5624;49.388;11.350;2023-04-15T05:08:03;6.50;;;5.30;;
11139;SDS011;5624;49.388;11.350;2023-04-15T05:10:29;11.00;;;5.60;;
11139;SDS011;5624;49.388;11.350;2023-04-15T05:12:55;8.27;;;6.57;;
11139;SDS011;5624;49.388;11.350;2023-04-15T05:15:21;8.57;;;6.37;;
11139;SDS011;5624;49.388;11.350;2023-04-15T05:17:47;9.03;;;6.20;;
11139;SDS011;5624;49.388;11.350;2023-04-15T05:20:12;7.53;;;5.70;;
11139;SDS011;5624;49.388;11.350;2023-04-15T05:22:38;7.33;;;5.57;;
11139;SDS011;5624;49.388;11.350;2023-04-15T05:25:04;6.33;;;5.43;;
11139;SDS011;5624;49.388;11.350;2023-04-15T05:27:29;9.40;;;5.67;;
11139;SDS011;5624;49.388;11.350;2023-04-15T05:29:55;6.70;;;5.43;;
11139;SDS011;5624;49.388;11.350;2023-04-15T05:32:21;6.83;;;4.87;;
11139;SDS011;5624;49.388;11.350;2023-04-15T05:34:46;11.20;;;6.43;;
11139;SDS011;5624;49.388;11.350;2023-04-15T05:37:12;7.77;;;6.03;;
11139;SDS011;5624;49.388;11.350;2023-04-15T05:39:38;7.83;;;5.53;;
11139;SDS011;5624;49.388;11.350;2023-04-15T05:42:03;6.97;;;5.50;;
11139;SDS011;5624;49.388;11.350;2023-04-15T05:44:30;9.10;;;5.77;;
11139;SDS011;5624;49.388;11.350;2023-04-15T05:46:55;7.93;;;5.80;;
11139;SDS011;5624;49.388;11.350;2023-04-15T05:49:21;7.90;;;6.07;;
11139;SDS011;5624;49.388;11.350;2023-04-15T05:51:47;7.87;;;6.20;;
11139;SDS011;5624;49.388;11.350;2023-04-15T05:54:13;7.93;;;5.97;;
11139;SDS011;5624;49.388;11.350;2023-04-15T05:56:38;6.97;;;5.87;;
11139;SDS011;5624;49.388;11.350;2023-04-15T05:59:04;8.00;;;5.80;;
11139;SDS011;5624;49.388;11.350;2023-04-15T06:01:30;9.27;;;6.40;;
11139;SDS011;5624;49.388;11.350;2023-04-15T06:03:57;8.07;;;6.30;;
11139;SDS011;5624;49.388;11.350;2023-04-15T06:06:22;8.70;;;5.67;;
11139;SDS011;5624;49.388;11.350;2023-04-15T06:08:48;7.07;;;5.73;;
11139;SDS011;5624;49.388;11.350;2023-04-15T06:11:13;7.20;;;5.67;;
11139;SDS011;5624;49.388;11.350;2023-04-15T06:13:39;9.30;;;6.10;;
11139;SDS011;5624;49.388;11.350;2023-04-15T06:16:05;8.40;;;5.97;;
11139;SDS011;5624;49.388;11.350;2023-04-15T06:18:31;9.73;;;6.00;;
11139;SDS011;5624;49.388;11.350;2023-04-15T06:20:57;7.33;;;5.73;;
11139;SDS011;5624;49.388;11.350;2023-04-15T06:23:23;8.03;;;6.17;;
11139;SDS011;5624;49.388;11.350;2023-04-15T06:25:49;8.23;;;6.40;;
11139;SDS011;5624;49.388;11.350;2023-04-15T06:28:14;9.60;;;6.63;;
11139;SDS011;5624;49.388;11.350;2023-04-15T06:30:40;8.00;;;6.50;;
11139;SDS011;5624;49.388;11.350;2023-04-15T06:33:06;12.30;;;6.60;;
11139;SDS011;5624;49.388;11.350;2023-04-15T06:35:31;8.57;;;5.87;;
11139;SDS011;5624;49.388;11.350;2023-04-15T06:37:57;9.00;;;6.27;;
11139;SDS011;5624;49.388;11.350;2023-04-15T06:40:23;8.83;;;5.90;;
11139;SDS011;5624;49.388;11.350;2023-04-15T06:42:48;8.20;;;6.00;;
11139;SDS011;5624;49.388;11.350;2023-04-15T06:45:14;7.60;;;5.73;;
11139;SDS011;5624;49.388;11.350;2023-04-15T06:47:40;8.70;;;6.87;;
11139;SDS011;5624;49.388;11.350;2023-04-15T06:50:06;7.50;;;5.83;;
11139;SDS011;5624;49.388;11.350;2023-04-15T06:52:33;10.80;;;6.47;;
11139;SDS011;5624;49.388;11.350;2023-04-15T06:54:59;8.33;;;6.20;;
11139;SDS011;5624;49.388;11.350;2023-04-15T06:57:26;10.33;;;5.90;;
11139;SDS011;5624;49.388;11.350;2023-04-15T06:59:52;7.77;;;6.23;;
11139;SDS011;5624;49.388;11.350;2023-04-15T07:02:18;11.13;;;6.00;;
11139;SDS011;5624;49.388;11.350;2023-04-15T07:04:46;9.03;;;5.93;;
11139;SDS011;5624;49.388;11.350;2023-04-15T07:07:11;8.03;;;6.67;;
11139;SDS011;5624;49.388;11.350;2023-04-15T07:09:37;8.53;;;5.87;;
11139;SDS011;5624;49.388;11.350;2023-04-15T07:12:03;9.00;;;6.03;;
11139;SDS011;5624;49.388;11.350;2023-04-15T07:14:28;7.73;;;5.83;;
11139;SDS011;5624;49.388;11.350;2023-04-15T07:16:54;7.90;;;5.40;;
11139;SDS011;5624;49.388;11.350;2023-04-15T07:19:20;7.00;;;5.53;;
11139;SDS011;5624;49.388;11.350;2023-04-15T07:21:46;8.07;;;5.67;;
11139;SDS011;5624;49.388;11.350;2023-04-15T07:24:11;7.57;;;6.00;;
11139;SDS011;5624;49.388;11.350;2023-04-15T07:26:41;8.70;;;6.17;;
11139;SDS011;5624;49.388;11.350;2023-04-15T07:29:06;7.57;;;5.97;;
11139;SDS011;5624;49.388;11.350;2023-04-15T07:31:32;8.93;;;6.47;;
11139;SDS011;5624;49.388;11.350;2023-04-15T07:33:58;8.93;;;5.60;;
11139;SDS011;5624;49.388;11.350;2023-04-15T07:36:23;8.97;;;6.03;;
11139;SDS011;5624;49.388;11.350;2023-04-15T07:38:49;6.60;;;5.47;;
11139;SDS011;5624;49.388;11.350;2023-04-15T07:41:15;6.73;;;5.60;;
11139;SDS011;5624;49.388;11.350;2023-04-15T07:43:41;6.07;;;4.80;;
11139;SDS011;5624;49.388;11.350;2023-04-15T07:46:07;6.53;;;4.87;;
11139;SDS011;5624;49.388;11.350;2023-04-15T07:48:33;6.93;;;4.70;;
11139;SDS011;5624;49.388;11.350;2023-04-15T07:50:58;6.17;;;4.33;;
11139;SDS011;5624;49.388;11.350;2023-04-15T07:53:24;8.30;;;5.37;;
11139;SDS011;5624;49.388;11.350;2023-04-15T07:55:50;8.83;;;5.23;;
11139;SDS011;5624;49.388;11.350;2023-04-15T07:58:16;8.37;;;4.83;;
11139;SDS011;5624;49.388;11.350;2023-04-15T08:00:42;5.97;;;4.60;;
11139;SDS011;5624;49.388;11.350;2023-04-15T08:03:08;6.07;;;4.60;;
11139;SDS011;5624;49.388;11.350;2023-04-15T08:05:34;7.40;;;5.27;;
11139;SDS011;5624;49.388;11.350;2023-04-15T08:07:59;7.03;;;4.90;;
11139;SDS011;5624;49.388;11.350;2023-04-15T08:10:25;5.97;;;4.40;;
11139;SDS011;5624;49.388;11.350;2023-04-15T08:12:51;6.30;;;4.27;;
11139;SDS011;5624;49.388;11.350;2023-04-15T08:15:18;6.43;;;5.13;;
11139;SDS011;5624;49.388;11.350;2023-04-15T08:17:44;6.43;;;4.70;;
11139;SDS011;5624;49.388;11.350;2023-04-15T08:20:10;6.00;;;4.37;;
11139;SDS011;5624;49.388;11.350;2023-04-15T08:22:37;5.40;;;4.07;;
11139;SDS011;5624;49.388;11.350;2023-04-15T08:25:03;6.23;;;3.87;;
11139;SDS011;5624;49.388;11.350;2023-04-15T08:27:29;6.17;;;3.93;;
11139;SDS011;5624;49.388;11.350;2023-04-15T08:29:55;6.73;;;4.97;;
11139;SDS011;5624;49.388;11.350;2023-04-15T08:32:20;5.87;;;4.50;;
11139;SDS011;5624;49.388;11.350;2023-04-15T08:34:46;6.93;;;4.77;;
11139;SDS011;5624;49.388;11.350;2023-04-15T08:37:12;8.33;;;4.50;;
11139;SDS011;5624;49.388;11.350;2023-04-15T08:39:38;6.77;;;4.87;;
11139;SDS011;5624;49.388;11.350;2023-04-15T08:42:04;5.97;;;4.30;;
11139;SDS011;5624;49.388;11.350;2023-04-15T08:44:35;6.53;;;4.20;;
11139;SDS011;5624;49.388;11.350;2023-04-15T08:47:02;4.80;;;3.73;;
11139;SDS011;5624;49.388;11.350;2023-04-15T08:49:31;5.50;;;3.63;;
11139;SDS011;5624;49.388;11.350;2023-04-15T08:51:57;5.80;;;3.93;;
11139;SDS011;5624;49.388;11.350;2023-04-15T08:54:23;6.37;;;4.33;;
11139;SDS011;5624;49.388;11.350;2023-04-15T08:56:50;6.67;;;4.80;;
11139;SDS011;5624;49.388;11.350;2023-04-15T08:59:20;5.73;;;3.70;;
11139;SDS011;5624;49.388;11.350;2023-04-15T09:01:50;5.47;;;3.67;;
11139;SDS011;5624;49.388;11.350;2023-04-15T09:04:17;5.27;;;3.73;;
11139;SDS011;5624;49.388;11.350;2023-04-15T09:06:43;4.90;;;3.73;;
11139;SDS011;5624;49.388;11.350;2023-04-15T09:09:09;5.87;;;3.87;;
11139;SDS011;5624;49.388;11.350;2023-04-15T09:11:36;4.97;;;3.80;;
11139;SDS011;5624;49.388;11.350;2023-04-15T09:14:01;5.20;;;4.23;;
11139;SDS011;5624;49.388;11.350;2023-04-15T09:16:27;4.73;;;3.53;;
11139;SDS011;5624;49.388;11.350;2023-04-15T09:18:53;5.10;;;4.03;;
11139;SDS011;5624;49.388;11.350;2023-04-15T09:21:19;6.50;;;4.50;;
11139;SDS011;5624;49.388;11.350;2023-04-15T09:26:32;5.47;;;4.00;;
11139;SDS011;5624;49.388;11.350;2023-04-15T09:29:05;4.40;;;3.40;;
11139;SDS011;5624;49.388;11.350;2023-04-15T09:31:33;5.37;;;3.70;;
11139;SDS011;5624;49.388;11.350;2023-04-15T09:33:59;6.57;;;3.67;;
11139;SDS011;5624;49.388;11.350;2023-04-15T09:36:25;4.07;;;2.90;;
11139;SDS011;5624;49.388;11.350;2023-04-15T09:38:56;5.00;;;3.07;;
11139;SDS011;5624;49.388;11.350;2023-04-15T09:41:24;5.13;;;3.20;;
11139;SDS011;5624;49.388;11.350;2023-04-15T09:43:50;4.90;;;3.17;;
11139;SDS011;5624;49.388;11.350;2023-04-15T09:46:16;3.77;;;2.73;;
11139;SDS011;5624;49.388;11.350;2023-04-15T09:48:41;3.80;;;2.83;;
11139;SDS011;5624;49.388;11.350;2023-04-15T09:51:08;3.57;;;2.67;;
11139;SDS011;5624;49.388;11.350;2023-04-15T09:53:34;3.07;;;2.30;;
11139;SDS011;5624;49.388;11.350;2023-04-15T09:56:01;4.47;;;2.90;;
11139;SDS011;5624;49.388;11.350;2023-04-15T09:58:27;3.97;;;2.87;;
11139;SDS011;5624;49.388;11.350;2023-04-15T10:00:58;4.00;;;2.60;;
11139;SDS011;5624;49.388;11.350;2023-04-15T10:03:26;4.53;;;2.80;;
11139;SDS011;5624;49.388;11.350;2023-04-15T10:05:54;3.73;;;2.20;;
11139;SDS011;5624;49.388;11.350;2023-04-15T10:08:22;3.60;;;2.60;;
11139;SDS011;5624;49.388;11.350;2023-04-15T10:10:53;5.30;;;2.97;;
11139;SDS011;5624;49.388;11.350;2023-04-15T10:13:20;4.10;;;3.00;;
11139;SDS011;5624;49.388;11.350;2023-04-15T10:15:51;8.50;;;5.57;;
11139;SDS011;5624;49.388;11.350;2023-04-15T10:18:22;5.90;;;4.80;;
11139;SDS011;5624;49.388;11.350;2023-04-15T10:20:52;4.00;;;3.00;;
11139;SDS011;5624;49.388;11.350;2023-04-15T10:23:18;3.97;;;2.70;;
11139;SDS011;5624;49.388;11.350;2023-04-15T10:25:45;3.40;;;2.70;;
11139;SDS011;5624;49.388;11.350;2023-04-15T10:28:13;4.50;;;2.97;;
11139;SDS011;5624;49.388;11.350;2023-04-15T10:30:39;3.07;;;2.23;;
11139;SDS011;5624;49.388;11.350;2023-04-15T10:33:06;3.70;;;2.67;;
11139;SDS011;5624;49.388;11.350;2023-04-15T10:35:33;9.77;;;7.00;;
11139;SDS011;5624;49.388;11.350;2023-04-15T10:38:00;4.20;;;3.20;;
11139;SDS011;5624;49.388;11.350;2023-04-15T10:40:27;7.93;;;6.23;;
11139;SDS011;5624;49.388;11.350;2023-04-15T10:42:54;3.90;;;3.50;;
11139;SDS011;5624;49.388;11.350;2023-04-15T10:45:20;2.17;;;1.97;;
11139;SDS011;5624;49.388;11.350;2023-04-15T10:47:55;2.80;;;2.03;;
11139;SDS011;5624;49.388;11.350;2023-04-15T10:50:24;3.23;;;2.03;;
11139;SDS011;5624;49.388;11.350;2023-04-15T10:52:51;2.40;;;1.97;;
11139;SDS011;5624;49.388;11.350;2023-04-15T10:55:21;3.83;;;1.90;;
11139;SDS011;5624;49.388;11.350;2023-04-15T10:57:51;3.53;;;2.87;;
11139;SDS011;5624;49.388;11.350;2023-04-15T11:00:18;3.83;;;2.60;;
11139;SDS011;5624;49.388;11.350;2023-04-15T11:05:22;3.50;;;2.40;;
11139;SDS011;5624;49.388;11.350;2023-04-15T11:08:11;1.47;;;1.37;;
11139;SDS011;5624;49.388;11.350;2023-04-15T11:15:33;3.10;;;1.73;;
11139;SDS011;5624;49.388;11.350;2023-04-15T11:18:12;2.00;;;1.77;;
11139;SDS011;5624;49.388;11.350;2023-04-15T11:20:41;2.17;;;1.70;;
11139;SDS011;5624;49.388;11.350;2023-04-15T11:23:09;2.23;;;2.03;;
11139;SDS011;5624;49.388;11.350;2023-04-15T11:25:35;2.87;;;1.90;;
11139;SDS011;5624;49.388;11.350;2023-04-15T11:28:03;2.10;;;1.90;;
11139;SDS011;5624;49.388;11.350;2023-04-15T11:30:33;2.07;;;1.87;;
11139;SDS011;5624;49.388;11.350;2023-04-15T11:33:00;2.77;;;1.90;;
11139;SDS011;5624;49.388;11.350;2023-04-15T11:35:28;4.97;;;2.80;;
11139;SDS011;5624;49.388;11.350;2023-04-15T11:37:54;2.77;;;2.00;;
11139;SDS011;5624;49.388;11.350;2023-04-15T11:40:28;7.73;;;5.73;;
11139;SDS011;5624;49.388;11.350;2023-04-15T11:48:27;2.93;;;2.63;;
11139;SDS011;5624;49.388;11.350;2023-04-15T11:50:55;4.80;;;3.03;;
11139;SDS011;5624;49.388;11.350;2023-04-15T11:53:23;3.37;;;3.07;;
11139;SDS011;5624;49.388;11.350;2023-04-15T11:55:50;9.80;;;4.60;;
11139;SDS011;5624;49.388;11.350;2023-04-15T11:58:23;3.40;;;2.90;;
11139;SDS011;5624;49.388;11.350;2023-04-15T12:00:54;3.47;;;2.90;;
11139;SDS011;5624;49.388;11.350;2023-04-15T12:03:25;5.93;;;4.00;;
11139;SDS011;5624;49.388;11.350;2023-04-15T12:06:04;5.03;;;3.60;;
11139;SDS011;5624;49.388;11.350;2023-04-15T12:11:21;3.83;;;3.00;;
11139;SDS011;5624;49.388;11.350;2023-04-15T12:13:56;4.73;;;3.27;;
11139;SDS011;5624;49.388;11.350;2023-04-15T12:16:37;3.87;;;3.17;;
11139;SDS011;5624;49.388;11.350;2023-04-15T12:19:09;4.67;;;3.20;;
11139;SDS011;5624;49.388;11.350;2023-04-15T12:21:37;5.60;;;4.00;;
11139;SDS011;5624;49.388;11.350;2023-04-15T12:24:05;5.60;;;3.07;;
11139;SDS011;5624;49.388;11.350;2023-04-15T12:26:36;4.03;;;2.53;;
11139;SDS011;5624;49.388;11.350;2023-04-15T12:29:07;4.83;;;2.83;;
11139;SDS011;5624;49.388;11.350;2023-04-15T12:31:34;2.97;;;2.40;;
11139;SDS011;5624;49.388;11.350;2023-04-15T12:34:05;3.97;;;2.63;;
11139;SDS011;5624;49.388;11.350;2023-04-15T12:36:33;3.13;;;2.20;;
11139;SDS011;5624;49.388;11.350;2023-04-15T12:39:02;2.83;;;2.30;;
11139;SDS011;5624;49.388;11.350;2023-04-15T12:41:28;2.87;;;2.07;;
11139;SDS011;5624;49.388;11.350;2023-04-15T12:43:54;3.20;;;2.40;;
11139;SDS011;5624;49.388;11.350;2023-04-15T12:46:20;3.10;;;2.60;;
11139;SDS011;5624;49.388;11.350;2023-04-15T12:48:46;3.07;;;2.10;;
11139;SDS011;5624;49.388;11.350;2023-04-15T12:51:12;2.87;;;2.50;;
11139;SDS011;5624;49.388;11.350;2023-04-15T12:53:38;3.17;;;2.30;;
11139;SDS011;5624;49.388;11.350;2023-04-15T12:56:04;3.70;;;2.20;;
11139;SDS011;5624;49.388;11.350;2023-04-15T12:58:30;2.40;;;2.20;;
11139;SDS011;5624;49.388;11.350;2023-04-15T13:00:56;2.40;;;2.17;;
11139;SDS011;5624;49.388;11.350;2023-04-15T13:03:21;3.87;;;2.37;;
11139;SDS011;5624;49.388;11.350;2023-04-15T13:05:47;3.63;;;2.70;;
11139;SDS011;5624;49.388;11.350;2023-04-15T13:08:13;3.40;;;2.53;;
11139;SDS011;5624;49.388;11.350;2023-04-15T13:10:38;3.40;;;2.60;;
11139;SDS011;5624;49.388;11.350;2023-04-15T13:13:06;4.17;;;2.83;;
11139;SDS011;5624;49.388;11.350;2023-04-15T13:15:32;3.07;;;2.60;;
11139;SDS011;5624;49.388;11.350;2023-04-15T13:17:57;3.43;;;2.90;;
11139;SDS011;5624;49.388;11.350;2023-04-15T13:20:23;3.20;;;2.60;;
11139;SDS011;5624;49.388;11.350;2023-04-15T13:22:51;4.40;;;3.20;;
11139;SDS011;5624;49.388;11.350;2023-04-15T13:25:17;3.93;;;3.00;;
11139;SDS011;5624;49.388;11.350;2023-04-15T13:27:42;2.93;;;2.67;;
11139;SDS011;5624;49.388;11.350;2023-04-15T13:30:08;3.10;;;2.53;;
11139;SDS011;5624;49.388;11.350;2023-04-15T13:32:34;3.57;;;3.07;;
11139;SDS011;5624;49.388;11.350;2023-04-15T13:34:59;3.60;;;2.80;;
11139;SDS011;5624;49.388;11.350;2023-04-15T13:37:26;3.47;;;2.87;;
11139;SDS011;5624;49.388;11.350;2023-04-15T13:39:52;2.90;;;2.60;;
11139;SDS011;5624;49.388;11.350;2023-04-15T13:42:18;11.00;;;6.67;;
11139;SDS011;5624;49.388;11.350;2023-04-15T13:44:44;6.57;;;5.17;;
11139;SDS011;5624;49.388;11.350;2023-04-15T13:47:10;4.53;;;3.73;;
11139;SDS011;5624;49.388;11.350;2023-04-15T13:49:37;10.67;;;6.17;;
11139;SDS011;5624;49.388;11.350;2023-04-15T13:52:02;5.17;;;3.90;;
11139;SDS011;5624;49.388;11.350;2023-04-15T13:54:28;7.27;;;5.40;;
11139;SDS011;5624;49.388;11.350;2023-04-15T13:56:53;7.97;;;6.23;;
11139;SDS011;5624;49.388;11.350;2023-04-15T13:59:21;3.47;;;3.07;;
11139;SDS011;5624;49.388;11.350;2023-04-15T14:01:46;2.80;;;2.50;;
11139;SDS011;5624;49.388;11.350;2023-04-15T14:04:12;3.30;;;2.73;;
11139;SDS011;5624;49.388;11.350;2023-04-15T14:06:38;3.20;;;2.67;;
11139;SDS011;5624;49.388;11.350;2023-04-15T14:09:03;11.43;;;9.27;;
11139;SDS011;5624;49.388;11.350;2023-04-15T14:11:29;8.33;;;7.60;;
11139;SDS011;5624;49.388;11.350;2023-04-15T14:13:54;5.03;;;4.33;;
11139;SDS011;5624;49.388;11.350;2023-04-15T14:16:20;3.00;;;2.67;;
11139;SDS011;5624;49.388;11.350;2023-04-15T14:18:46;2.70;;;2.50;;
11139;SDS011;5624;49.388;11.350;2023-04-15T14:21:11;4.83;;;3.10;;
11139;SDS011;5624;49.388;11.350;2023-04-15T14:23:37;4.97;;;3.67;;
11139;SDS011;5624;49.388;11.350;2023-04-15T14:26:03;6.87;;;5.60;;
11139;SDS011;5624;49.388;11.350;2023-04-15T14:28:28;2.50;;;2.30;;
11139;SDS011;5624;49.388;11.350;2023-04-15T14:30:54;2.30;;;2.10;;
11139;SDS011;5624;49.388;11.350;2023-04-15T14:33:19;3.47;;;3.17;;
11139;SDS011;5624;49.388;11.350;2023-04-15T14:35:45;2.67;;;2.30;;
11139;SDS011;5624;49.388;11.350;2023-04-15T14:38:11;3.10;;;2.80;;
11139;SDS011;5624;49.388;11.350;2023-04-15T14:40:36;4.43;;;3.60;;
11139;SDS011;5624;49.388;11.350;2023-04-15T14:43:02;4.57;;;3.30;;
11139;SDS011;5624;49.388;11.350;2023-04-15T14:45:28;12.20;;;8.37;;
11139;SDS011;5624;49.388;11.350;2023-04-15T14:47:54;14.03;;;9.77;;
11139;SDS011;5624;49.388;11.350;2023-04-15T14:50:21;7.17;;;4.80;;
11139;SDS011;5624;49.388;11.350;2023-04-15T14:52:47;9.33;;;5.70;;
11139;SDS011;5624;49.388;11.350;2023-04-15T14:55:13;4.97;;;3.40;;
11139;SDS011;5624;49.388;11.350;2023-04-15T14:57:39;6.73;;;4.30;;
11139;SDS011;5624;49.388;11.350;2023-04-15T15:00:06;8.40;;;5.07;;
11139;SDS011;5624;49.388;11.350;2023-04-15T15:02:33;8.83;;;5.63;;